Main page
METAR-TAF:

METAR-TAF

Airports :

Belgrade, Serbia

Belgrade Nikola Tesla Airport

latitude: 44-49N, longitude: 020-17E, elevation: 96 m

Current weather observation

The report was made 32 minutes ago, at 22:30 UTC
Wind 3 kt from the South/Southwest, varying between South and West/Southwest
Temperature 17°C
Humidity 59%
Pressure 1019 hPa
Visibility 10 km or more
no clouds below 1500 m and no cumulonimbus

METAR: LYBE 232230Z 20003KT 170V250 CAVOK 17/09 Q1019 NOSIG

Time: 01:02 (23:02 UTC)

Forecast

The report was made 6 hours and 2 minutes ago, at 17:00 UTC
Forecast valid from 23 at 18 UTC to 24 at 18 UTC
Wind 4 kt from the South/Southeast
Visibility 10 km or more
no clouds below 1500 m and no cumulonimbus

TAF: LYBE 231700Z 2318/2418 16004KT CAVOK TX29/2413Z TN14/2404Z

Weather observations and forecasts of more than 4000 airports (METAR and TAF reports).

The available stations are represented by yellow and red dots on the map.

Hover mouse over dot to see the name of the station.

Then click to see weather observations and forecasts.

To change the map : click on the green buttons with a black cross to zoom in, on the green button with a dash to zoom out, or on the green arrows for adjacent maps.


METAR-TAF: